sensor_id;sensor_type;location;lat;lon;timestamp;temperature;humidity
18658;DHT22;9458;50.942;5.074;2022-09-20T01:12:18;15.00;99.90
18658;DHT22;9458;50.942;5.074;2022-09-20T01:14:49;15.00;99.90
18658;DHT22;9458;50.942;5.074;2022-09-20T01:17:18;15.00;99.90
18658;DHT22;9458;50.942;5.074;2022-09-20T01:19:59;15.00;99.90
18658;DHT22;9458;50.942;5.074;2022-09-20T01:22:37;15.10;99.90
18658;DHT22;9458;50.942;5.074;2022-09-20T01:25:12;15.00;99.90
18658;DHT22;9458;50.942;5.074;2022-09-20T01:27:45;15.00;99.90
18658;DHT22;9458;50.942;5.074;2022-09-20T01:30:17;15.00;99.90
18658;DHT22;9458;50.942;5.074;2022-09-20T01:33:00;15.00;99.90
18658;DHT22;9458;50.942;5.074;2022-09-20T01:35:29;15.00;99.90
18658;DHT22;9458;50.942;5.074;2022-09-20T01:38:15;15.00;99.90
18658;DHT22;9458;50.942;5.074;2022-09-20T01:40:53;15.00;99.90
18658;DHT22;9458;50.942;5.074;2022-09-20T01:43:31;15.00;99.90
18658;DHT22;9458;50.942;5.074;2022-09-20T01:46:09;15.00;99.90
18658;DHT22;9458;50.942;5.074;2022-09-20T01:48:41;15.00;99.90
18658;DHT22;9458;50.942;5.074;2022-09-20T01:51:30;15.00;99.90
18658;DHT22;9458;50.942;5.074;2022-09-20T01:54:37;15.00;99.90
18658;DHT22;9458;50.942;5.074;2022-09-20T01:57:38;15.00;99.90
18658;DHT22;9458;50.942;5.074;2022-09-20T02:00:12;15.00;99.90
18658;DHT22;9458;50.942;5.074;2022-09-20T02:03:13;14.90;99.90
18658;DHT22;9458;50.942;5.074;2022-09-20T02:06:03;14.90;99.90
18658;DHT22;9458;50.942;5.074;2022-09-20T02:08:57;14.90;99.90
18658;DHT22;9458;50.942;5.074;2022-09-20T02:11:39;14.90;99.90
18658;DHT22;9458;50.942;5.074;2022-09-20T02:14:34;14.90;99.90
18658;DHT22;9458;50.942;5.074;2022-09-20T02:17:11;14.90;99.90
18658;DHT22;9458;50.942;5.074;2022-09-20T02:20:23;14.90;99.90
18658;DHT22;9458;50.942;5.074;2022-09-20T02:23:10;14.90;99.90
18658;DHT22;9458;50.942;5.074;2022-09-20T02:28:50;14.80;99.90
18658;DHT22;9458;50.942;5.074;2022-09-20T02:31:26;14.80;99.90
18658;DHT22;9458;50.942;5.074;2022-09-20T02:34:17;14.80;99.90
18658;DHT22;9458;50.942;5.074;2022-09-20T02:37:00;14.90;99.90
18658;DHT22;9458;50.942;5.074;2022-09-20T02:39:36;14.80;99.90
18658;DHT22;9458;50.942;5.074;2022-09-20T02:42:12;14.80;99.90
18658;DHT22;9458;50.942;5.074;2022-09-20T02:44:53;14.80;99.90
18658;DHT22;9458;50.942;5.074;2022-09-20T02:47:30;14.80;99.90
18658;DHT22;9458;50.942;5.074;2022-09-20T02:50:13;14.80;99.90
18658;DHT22;9458;50.942;5.074;2022-09-20T02:52:55;14.80;99.90
18658;DHT22;9458;50.942;5.074;2022-09-20T02:55:33;14.80;99.90
18658;DHT22;9458;50.942;5.074;2022-09-20T02:58:14;14.80;99.90
18658;DHT22;9458;50.942;5.074;2022-09-20T03:00:51;14.80;99.90
18658;DHT22;9458;50.942;5.074;2022-09-20T03:03:38;14.80;99.90
18658;DHT22;9458;50.942;5.074;2022-09-20T03:06:26;14.80;99.90
18658;DHT22;9458;50.942;5.074;2022-09-20T03:09:03;14.80;99.90
18658;DHT22;9458;50.942;5.074;2022-09-20T03:11:38;14.80;99.90
18658;DHT22;9458;50.942;5.074;2022-09-20T03:14:15;14.80;99.90
18658;DHT22;9458;50.942;5.074;2022-09-20T03:17:03;14.70;99.90
18658;DHT22;9458;50.942;5.074;2022-09-20T03:19:42;14.80;99.90
18658;DHT22;9458;50.942;5.074;2022-09-20T03:22:20;14.80;99.90
18658;DHT22;9458;50.942;5.074;2022-09-20T03:24:59;14.80;99.90
18658;DHT22;9458;50.942;5.074;2022-09-20T03:27:41;14.80;99.90
18658;DHT22;9458;50.942;5.074;2022-09-20T03:30:24;14.70;99.90
18658;DHT22;9458;50.942;5.074;2022-09-20T03:33:03;14.70;99.90
18658;DHT22;9458;50.942;5.074;2022-09-20T03:35:50;14.70;99.90
18658;DHT22;9458;50.942;5.074;2022-09-20T03:38:38;14.70;99.90
18658;DHT22;9458;50.942;5.074;2022-09-20T03:41:36;14.70;99.90
18658;DHT22;9458;50.942;5.074;2022-09-20T03:44:20;14.70;99.90
18658;DHT22;9458;50.942;5.074;2022-09-20T03:47:01;14.70;99.90
18658;DHT22;9458;50.942;5.074;2022-09-20T03:50:11;14.60;99.90
18658;DHT22;9458;50.942;5.074;2022-09-20T03:53:15;14.60;99.90
18658;DHT22;9458;50.942;5.074;2022-09-20T03:56:11;14.60;99.90
18658;DHT22;9458;50.942;5.074;2022-09-20T03:58:54;14.50;99.90
18658;DHT22;9458;50.942;5.074;2022-09-20T04:01:47;14.60;99.90
18658;DHT22;9458;50.942;5.074;2022-09-20T04:04:26;14.60;99.90
18658;DHT22;9458;50.942;5.074;2022-09-20T04:07:07;14.60;99.90
18658;DHT22;9458;50.942;5.074;2022-09-20T04:10:08;14.60;99.90
18658;DHT22;9458;50.942;5.074;2022-09-20T04:12:48;14.50;99.90
18658;DHT22;9458;50.942;5.074;2022-09-20T04:15:30;14.50;99.90
18658;DHT22;9458;50.942;5.074;2022-09-20T04:18:04;14.50;99.90
18658;DHT22;9458;50.942;5.074;2022-09-20T04:20:41;14.50;99.90
18658;DHT22;9458;50.942;5.074;2022-09-20T04:23:29;14.50;99.90
18658;DHT22;9458;50.942;5.074;2022-09-20T04:26:00;14.50;99.90
18658;DHT22;9458;50.942;5.074;2022-09-20T04:28:34;14.50;99.90
18658;DHT22;9458;50.942;5.074;2022-09-20T04:31:11;14.50;99.90
18658;DHT22;9458;50.942;5.074;2022-09-20T04:33:48;14.50;99.90
18658;DHT22;9458;50.942;5.074;2022-09-20T04:36:33;14.50;99.90
18658;DHT22;9458;50.942;5.074;2022-09-20T04:39:13;14.50;99.90
18658;DHT22;9458;50.942;5.074;2022-09-20T04:45:24;14.50;99.90
18658;DHT22;9458;50.942;5.074;2022-09-20T04:51:25;14.50;99.90
18658;DHT22;9458;50.942;5.074;2022-09-20T04:54:23;14.50;99.90
18658;DHT22;9458;50.942;5.074;2022-09-20T04:57:26;14.50;99.90
18658;DHT22;9458;50.942;5.074;2022-09-20T05:10:49;14.40;99.90
18658;DHT22;9458;50.942;5.074;2022-09-20T05:13:31;14.40;99.90
18658;DHT22;9458;50.942;5.074;2022-09-20T05:16:06;14.40;99.90
18658;DHT22;9458;50.942;5.074;2022-09-20T05:19:03;14.40;99.90
18658;DHT22;9458;50.942;5.074;2022-09-20T05:22:06;14.40;99.90
18658;DHT22;9458;50.942;5.074;2022-09-20T05:25:15;14.40;99.90
18658;DHT22;9458;50.942;5.074;2022-09-20T05:27:57;14.40;99.90
18658;DHT22;9458;50.942;5.074;2022-09-20T05:30:34;14.40;99.90
18658;DHT22;9458;50.942;5.074;2022-09-20T05:33:18;14.40;99.90
18658;DHT22;9458;50.942;5.074;2022-09-20T05:35:59;14.30;99.90
18658;DHT22;9458;50.942;5.074;2022-09-20T05:38:35;14.30;99.90
18658;DHT22;9458;50.942;5.074;2022-09-20T05:41:22;14.30;99.90
18658;DHT22;9458;50.942;5.074;2022-09-20T05:44:01;14.40;99.90
18658;DHT22;9458;50.942;5.074;2022-09-20T05:49:43;14.40;99.90
18658;DHT22;9458;50.942;5.074;2022-09-20T05:52:43;14.40;99.90
18658;DHT22;9458;50.942;5.074;2022-09-20T05:55:36;14.30;99.90
18658;DHT22;9458;50.942;5.074;2022-09-20T05:58:45;14.30;99.90
18658;DHT22;9458;50.942;5.074;2022-09-20T06:01:24;14.40;99.90
18658;DHT22;9458;50.942;5.074;2022-09-20T06:04:11;14.40;99.90
18658;DHT22;9458;50.942;5.074;2022-09-20T06:06:51;14.30;99.90
18658;DHT22;9458;50.942;5.074;2022-09-20T06:09:33;14.30;99.90
18658;DHT22;9458;50.942;5.074;2022-09-20T06:12:35;14.30;99.90
18658;DHT22;9458;50.942;5.074;2022-09-20T06:15:15;14.30;99.90
18658;DHT22;9458;50.942;5.074;2022-09-20T06:17:52;14.40;99.90
18658;DHT22;9458;50.942;5.074;2022-09-20T06:20:28;14.90;99.90
18658;DHT22;9458;50.942;5.074;2022-09-20T06:22:59;15.50;99.90
18658;DHT22;9458;50.942;5.074;2022-09-20T06:25:33;16.20;99.90
18658;DHT22;9458;50.942;5.074;2022-09-20T06:28:11;16.90;99.90
18658;DHT22;9458;50.942;5.074;2022-09-20T06:30:45;17.30;99.90
18658;DHT22;9458;50.942;5.074;2022-09-20T06:33:14;17.30;99.90
18658;DHT22;9458;50.942;5.074;2022-09-20T06:35:46;17.00;99.90
18658;DHT22;9458;50.942;5.074;2022-09-20T06:38:31;16.60;99.90
18658;DHT22;9458;50.942;5.074;2022-09-20T06:41:30;16.30;99.90
18658;DHT22;9458;50.942;5.074;2022-09-20T06:44:00;16.10;99.90
18658;DHT22;9458;50.942;5.074;2022-09-20T06:46:31;16.00;99.90
18658;DHT22;9458;50.942;5.074;2022-09-20T06:49:00;16.00;99.90
18658;DHT22;9458;50.942;5.074;2022-09-20T06:51:33;15.90;99.90
18658;DHT22;9458;50.942;5.074;2022-09-20T06:54:01;15.80;99.90
18658;DHT22;9458;50.942;5.074;2022-09-20T06:56:30;15.80;99.90
18658;DHT22;9458;50.942;5.074;2022-09-20T06:59:01;15.80;99.90
18658;DHT22;9458;50.942;5.074;2022-09-20T07:21:57;17.80;99.90
18658;DHT22;9458;50.942;5.074;2022-09-20T07:24:24;18.10;99.90
18658;DHT22;9458;50.942;5.074;2022-09-20T07:26:56;18.10;99.90
18658;DHT22;9458;50.942;5.074;2022-09-20T07:29:23;18.10;99.90
18658;DHT22;9458;50.942;5.074;2022-09-20T07:31:52;18.00;99.90
18658;DHT22;9458;50.942;5.074;2022-09-20T07:34:19;17.70;99.90
18658;DHT22;9458;50.942;5.074;2022-09-20T07:36:47;17.40;99.90
18658;DHT22;9458;50.942;5.074;2022-09-20T07:39:16;17.10;99.90
18658;DHT22;9458;50.942;5.074;2022-09-20T07:41:44;16.90;99.90
18658;DHT22;9458;50.942;5.074;2022-09-20T07:44:13;16.70;99.90
18658;DHT22;9458;50.942;5.074;2022-09-20T07:46:50;16.50;99.90
18658;DHT22;9458;50.942;5.074;2022-09-20T07:49:19;16.40;99.90
18658;DHT22;9458;50.942;5.074;2022-09-20T07:51:46;16.30;99.90
18658;DHT22;9458;50.942;5.074;2022-09-20T07:54:16;16.30;99.90
18658;DHT22;9458;50.942;5.074;2022-09-20T07:56:44;16.30;99.90
18658;DHT22;9458;50.942;5.074;2022-09-20T07:59:12;16.30;99.90
18658;DHT22;9458;50.942;5.074;2022-09-20T08:01:41;16.20;99.90
18658;DHT22;9458;50.942;5.074;2022-09-20T08:04:09;16.20;99.90
18658;DHT22;9458;50.942;5.074;2022-09-20T08:06:38;16.20;99.90
18658;DHT22;9458;50.942;5.074;2022-09-20T08:09:06;16.20;99.90
18658;DHT22;9458;50.942;5.074;2022-09-20T08:33:54;16.60;99.90
18658;DHT22;9458;50.942;5.074;2022-09-20T08:36:23;16.70;99.90
18658;DHT22;9458;50.942;5.074;2022-09-20T08:38:52;16.70;99.90
18658;DHT22;9458;50.942;5.074;2022-09-20T08:41:23;16.80;99.90
18658;DHT22;9458;50.942;5.074;2022-09-20T08:43:54;16.90;99.90
18658;DHT22;9458;50.942;5.074;2022-09-20T08:46:26;16.90;99.90
18658;DHT22;9458;50.942;5.074;2022-09-20T08:49:11;16.90;99.90
18658;DHT22;9458;50.942;5.074;2022-09-20T08:51:42;16.90;99.90
18658;DHT22;9458;50.942;5.074;2022-09-20T08:54:15;16.90;99.90
18658;DHT22;9458;50.942;5.074;2022-09-20T08:56:43;16.90;99.90
18658;DHT22;9458;50.942;5.074;2022-09-20T08:59:15;16.90;99.90
18658;DHT22;9458;50.942;5.074;2022-09-20T09:01:43;17.00;99.90
18658;DHT22;9458;50.942;5.074;2022-09-20T09:04:15;17.00;99.90
18658;DHT22;9458;50.942;5.074;2022-09-20T09:06:44;17.10;99.90
18658;DHT22;9458;50.942;5.074;2022-09-20T09:09:17;17.20;99.90
18658;DHT22;9458;50.942;5.074;2022-09-20T09:11:46;17.40;99.90
18658;DHT22;9458;50.942;5.074;2022-09-20T09:14:23;17.70;99.90
18658;DHT22;9458;50.942;5.074;2022-09-20T09:17:10;17.90;99.90
18658;DHT22;9458;50.942;5.074;2022-09-20T09:20:05;18.00;99.90
18658;DHT22;9458;50.942;5.074;2022-09-20T09:22:47;18.20;99.90
18658;DHT22;9458;50.942;5.074;2022-09-20T09:25:27;18.30;99.90
18658;DHT22;9458;50.942;5.074;2022-09-20T09:28:01;18.40;99.90
18658;DHT22;9458;50.942;5.074;2022-09-20T09:30:33;18.40;99.90
18658;DHT22;9458;50.942;5.074;2022-09-20T09:33:21;18.60;99.90
18658;DHT22;9458;50.942;5.074;2022-09-20T09:35:56;18.70;99.90
18658;DHT22;9458;50.942;5.074;2022-09-20T09:38:27;18.80;99.90
18658;DHT22;9458;50.942;5.074;2022-09-20T09:40:55;18.90;99.90
18658;DHT22;9458;50.942;5.074;2022-09-20T09:43:25;19.00;99.90
18658;DHT22;9458;50.942;5.074;2022-09-20T09:45:58;19.00;99.90
18658;DHT22;9458;50.942;5.074;2022-09-20T09:48:45;18.90;99.90
18658;DHT22;9458;50.942;5.074;2022-09-20T09:51:18;19.00;99.90
18658;DHT22;9458;50.942;5.074;2022-09-20T09:53:48;19.20;99.90
18658;DHT22;9458;50.942;5.074;2022-09-20T09:56:40;19.10;99.90
18658;DHT22;9458;50.942;5.074;2022-09-20T09:59:30;19.20;99.90
18658;DHT22;9458;50.942;5.074;2022-09-20T10:02:12;19.30;99.90
18658;DHT22;9458;50.942;5.074;2022-09-20T10:04:47;19.40;99.90
18658;DHT22;9458;50.942;5.074;2022-09-20T10:07:21;19.40;99.90
18658;DHT22;9458;50.942;5.074;2022-09-20T10:09:59;19.40;99.90
18658;DHT22;9458;50.942;5.074;2022-09-20T10:12:46;19.30;99.90
18658;DHT22;9458;50.942;5.074;2022-09-20T10:15:27;19.30;99.90
18658;DHT22;9458;50.942;5.074;2022-09-20T10:20:41;19.30;99.90
18658;DHT22;9458;50.942;5.074;2022-09-20T10:23:25;19.20;99.90
18658;DHT22;9458;50.942;5.074;2022-09-20T10:26:02;19.10;99.90
18658;DHT22;9458;50.942;5.074;2022-09-20T10:28:45;19.10;99.90
18658;DHT22;9458;50.942;5.074;2022-09-20T10:31:30;19.00;99.90
18658;DHT22;9458;50.942;5.074;2022-09-20T10:34:15;19.00;99.90
18658;DHT22;9458;50.942;5.074;2022-09-20T10:36:50;19.00;99.90
18658;DHT22;9458;50.942;5.074;2022-09-20T10:39:25;19.00;99.90
18658;DHT22;9458;50.942;5.074;2022-09-20T10:42:05;19.00;99.90
18658;DHT22;9458;50.942;5.074;2022-09-20T10:45:02;19.10;99.90
18658;DHT22;9458;50.942;5.074;2022-09-20T10:47:40;19.10;99.90
18658;DHT22;9458;50.942;5.074;2022-09-20T10:50:20;19.00;99.90
18658;DHT22;9458;50.942;5.074;2022-09-20T10:53:15;18.90;99.90
18658;DHT22;9458;50.942;5.074;2022-09-20T10:55:54;18.90;99.90
18658;DHT22;9458;50.942;5.074;2022-09-20T10:58:55;18.80;99.90
18658;DHT22;9458;50.942;5.074;2022-09-20T11:01:35;18.80;99.90
18658;DHT22;9458;50.942;5.074;2022-09-20T11:04:20;18.70;99.90
18658;DHT22;9458;50.942;5.074;2022-09-20T11:07:03;18.70;99.90
18658;DHT22;9458;50.942;5.074;2022-09-20T11:09:39;18.70;99.90
18658;DHT22;9458;50.942;5.074;2022-09-20T11:12:12;18.60;99.90
18658;DHT22;9458;50.942;5.074;2022-09-20T11:14:47;18.60;99.90
18658;DHT22;9458;50.942;5.074;2022-09-20T11:17:19;18.60;99.90
18658;DHT22;9458;50.942;5.074;2022-09-20T11:19:55;18.50;99.90
18658;DHT22;9458;50.942;5.074;2022-09-20T11:22:27;18.50;99.90
18658;DHT22;9458;50.942;5.074;2022-09-20T11:25:03;18.40;99.90
18658;DHT22;9458;50.942;5.074;2022-09-20T11:27:38;18.40;99.90
18658;DHT22;9458;50.942;5.074;2022-09-20T11:30:14;18.50;99.90
18658;DHT22;9458;50.942;5.074;2022-09-20T11:32:46;18.50;99.90
18658;DHT22;9458;50.942;5.074;2022-09-20T11:35:26;18.50;99.90
18658;DHT22;9458;50.942;5.074;2022-09-20T11:38:01;18.50;99.90
18658;DHT22;9458;50.942;5.074;2022-09-20T11:40:33;18.60;99.90
18658;DHT22;9458;50.942;5.074;2022-09-20T11:43:04;18.60;99.90
18658;DHT22;9458;50.942;5.074;2022-09-20T11:45:36;18.60;99.90
18658;DHT22;9458;50.942;5.074;2022-09-20T11:48:09;18.60;99.90
18658;DHT22;9458;50.942;5.074;2022-09-20T11:57:05;18.50;99.90
18658;DHT22;9458;50.942;5.074;2022-09-20T11:59:36;18.40;99.90
18658;DHT22;9458;50.942;5.074;2022-09-20T12:02:17;18.40;99.90
18658;DHT22;9458;50.942;5.074;2022-09-20T12:04:47;18.50;99.90
18658;DHT22;9458;50.942;5.074;2022-09-20T12:07:19;18.50;99.90
18658;DHT22;9458;50.942;5.074;2022-09-20T12:09:54;18.50;99.90
18658;DHT22;9458;50.942;5.074;2022-09-20T12:12:38;18.60;99.90
18658;DHT22;9458;50.942;5.074;2022-09-20T12:15:23;18.60;99.90
18658;DHT22;9458;50.942;5.074;2022-09-20T12:18:05;18.70;99.90
18658;DHT22;9458;50.942;5.074;2022-09-20T12:20:57;18.70;99.90
18658;DHT22;9458;50.942;5.074;2022-09-20T12:26:41;18.70;99.90
18658;DHT22;9458;50.942;5.074;2022-09-20T12:32:41;18.80;99.90
18658;DHT22;9458;50.942;5.074;2022-09-20T12:38:37;19.00;99.90
18658;DHT22;9458;50.942;5.074;2022-09-20T12:41:10;19.00;99.90
18658;DHT22;9458;50.942;5.074;2022-09-20T12:44:00;19.00;99.90
18658;DHT22;9458;50.942;5.074;2022-09-20T12:46:49;19.00;99.90
18658;DHT22;9458;50.942;5.074;2022-09-20T12:52:52;18.80;99.90
18658;DHT22;9458;50.942;5.074;2022-09-20T12:55:41;18.70;99.90
18658;DHT22;9458;50.942;5.074;2022-09-20T12:58:31;18.60;99.90
18658;DHT22;9458;50.942;5.074;2022-09-20T13:10:30;18.30;99.90
18658;DHT22;9458;50.942;5.074;2022-09-20T13:13:14;18.20;99.90
18658;DHT22;9458;50.942;5.074;2022-09-20T13:15:48;18.10;99.90
18658;DHT22;9458;50.942;5.074;2022-09-20T13:18:18;18.10;99.90
18658;DHT22;9458;50.942;5.074;2022-09-20T13:20:47;18.10;99.90
18658;DHT22;9458;50.942;5.074;2022-09-20T13:23:22;18.00;99.90
18658;DHT22;9458;50.942;5.074;2022-09-20T13:25:51;17.90;99.90
18658;DHT22;9458;50.942;5.074;2022-09-20T13:28:28;17.90;99.90
18658;DHT22;9458;50.942;5.074;2022-09-20T13:31:22;17.90;99.90
18658;DHT22;9458;50.942;5.074;2022-09-20T13:33:50;17.90;99.90
18658;DHT22;9458;50.942;5.074;2022-09-20T13:36:24;17.90;99.90
18658;DHT22;9458;50.942;5.074;2022-09-20T13:38:55;17.90;99.90
18658;DHT22;9458;50.942;5.074;2022-09-20T13:41:25;17.80;99.90
18658;DHT22;9458;50.942;5.074;2022-09-20T13:43:54;17.80;99.90
18658;DHT22;9458;50.942;5.074;2022-09-20T13:46:23;17.80;99.90
18658;DHT22;9458;50.942;5.074;2022-09-20T13:48:58;17.80;99.90
18658;DHT22;9458;50.942;5.074;2022-09-20T13:51:36;17.70;99.90
18658;DHT22;9458;50.942;5.074;2022-09-20T13:54:32;17.70;99.90
18658;DHT22;9458;50.942;5.074;2022-09-20T13:57:01;17.70;99.90
18658;DHT22;9458;50.942;5.074;2022-09-20T13:59:32;17.70;99.90
18658;DHT22;9458;50.942;5.074;2022-09-20T14:02:02;17.70;99.90
18658;DHT22;9458;50.942;5.074;2022-09-20T14:04:30;17.80;99.90
18658;DHT22;9458;50.942;5.074;2022-09-20T14:06:58;17.80;99.90
18658;DHT22;9458;50.942;5.074;2022-09-20T14:09:30;17.80;99.90
18658;DHT22;9458;50.942;5.074;2022-09-20T14:12:02;17.90;99.90
18658;DHT22;9458;50.942;5.074;2022-09-20T14:14:30;17.90;99.90
18658;DHT22;9458;50.942;5.074;2022-09-20T14:17:01;17.90;99.90
18658;DHT22;9458;50.942;5.074;2022-09-20T14:19:32;17.90;99.90
18658;DHT22;9458;50.942;5.074;2022-09-20T14:22:04;17.90;99.90
18658;DHT22;9458;50.942;5.074;2022-09-20T14:24:33;17.90;99.90
18658;DHT22;9458;50.942;5.074;2022-09-20T14:27:15;18.00;99.90
18658;DHT22;9458;50.942;5.074;2022-09-20T14:29:44;18.00;99.90
18658;DHT22;9458;50.942;5.074;2022-09-20T14:32:35;17.90;99.90
18658;DHT22;9458;50.942;5.074;2022-09-20T14:35:11;18.00;99.90
18658;DHT22;9458;50.942;5.074;2022-09-20T14:37:43;18.00;99.90
18658;DHT22;9458;50.942;5.074;2022-09-20T14:40:21;18.00;99.90
18658;DHT22;9458;50.942;5.074;2022-09-20T14:42:58;18.00;99.90
18658;DHT22;9458;50.942;5.074;2022-09-20T14:45:28;18.00;99.90
18658;DHT22;9458;50.942;5.074;2022-09-20T14:48:00;18.00;99.90
18658;DHT22;9458;50.942;5.074;2022-09-20T14:50:30;18.00;99.90
18658;DHT22;9458;50.942;5.074;2022-09-20T14:53:13;18.10;99.90
18658;DHT22;9458;50.942;5.074;2022-09-20T14:56:09;18.10;99.90
18658;DHT22;9458;50.942;5.074;2022-09-20T14:59:22;18.10;99.90
18658;DHT22;9458;50.942;5.074;2022-09-20T15:02:00;18.10;99.90
18658;DHT22;9458;50.942;5.074;2022-09-20T15:04:33;18.10;99.90
18658;DHT22;9458;50.942;5.074;2022-09-20T15:07:04;18.00;99.90
18658;DHT22;9458;50.942;5.074;2022-09-20T15:09:32;17.90;99.90
18658;DHT22;9458;50.942;5.074;2022-09-20T15:12:01;17.90;99.90
18658;DHT22;9458;50.942;5.074;2022-09-20T15:14:31;17.90;99.90
18658;DHT22;9458;50.942;5.074;2022-09-20T15:16:59;17.90;99.90
18658;DHT22;9458;50.942;5.074;2022-09-20T15:19:29;17.90;99.90
18658;DHT22;9458;50.942;5.074;2022-09-20T15:21:56;17.90;99.90
18658;DHT22;9458;50.942;5.074;2022-09-20T15:24:24;17.90;99.90
18658;DHT22;9458;50.942;5.074;2022-09-20T15:26:51;17.90;99.90
18658;DHT22;9458;50.942;5.074;2022-09-20T15:29:19;17.90;99.90
18658;DHT22;9458;50.942;5.074;2022-09-20T15:31:48;17.90;99.90
18658;DHT22;9458;50.942;5.074;2022-09-20T15:34:16;17.90;99.90
18658;DHT22;9458;50.942;5.074;2022-09-20T15:36:44;17.90;99.90
18658;DHT22;9458;50.942;5.074;2022-09-20T15:39:14;17.90;99.90
18658;DHT22;9458;50.942;5.074;2022-09-20T15:41:41;17.90;99.90
18658;DHT22;9458;50.942;5.074;2022-09-20T15:44:10;17.80;99.90
18658;DHT22;9458;50.942;5.074;2022-09-20T15:46:37;17.80;99.90
18658;DHT22;9458;50.942;5.074;2022-09-20T15:49:10;17.90;99.90
18658;DHT22;9458;50.942;5.074;2022-09-20T15:51:37;17.80;99.90
18658;DHT22;9458;50.942;5.074;2022-09-20T15:54:06;17.80;99.90
18658;DHT22;9458;50.942;5.074;2022-09-20T15:56:37;17.80;99.90
18658;DHT22;9458;50.942;5.074;2022-09-20T15:59:09;17.80;99.90
18658;DHT22;9458;50.942;5.074;2022-09-20T16:01:39;17.80;99.90
18658;DHT22;9458;50.942;5.074;2022-09-20T16:04:10;17.80;99.90
18658;DHT22;9458;50.942;5.074;2022-09-20T16:06:39;17.70;99.90
18658;DHT22;9458;50.942;5.074;2022-09-20T16:09:07;17.70;99.90
18658;DHT22;9458;50.942;5.074;2022-09-20T16:11:35;17.70;99.90
18658;DHT22;9458;50.942;5.074;2022-09-20T16:14:04;17.60;99.90
18658;DHT22;9458;50.942;5.074;2022-09-20T16:16:33;17.60;99.90
18658;DHT22;9458;50.942;5.074;2022-09-20T16:19:01;17.50;99.90
18658;DHT22;9458;50.942;5.074;2022-09-20T16:21:47;17.50;99.90
18658;DHT22;9458;50.942;5.074;2022-09-20T16:24:21;17.40;99.90
18658;DHT22;9458;50.942;5.074;2022-09-20T16:26:48;17.40;99.90
18658;DHT22;9458;50.942;5.074;2022-09-20T16:29:16;17.30;99.90
18658;DHT22;9458;50.942;5.074;2022-09-20T16:31:44;17.30;99.90
18658;DHT22;9458;50.942;5.074;2022-09-20T16:34:14;17.20;99.90
18658;DHT22;9458;50.942;5.074;2022-09-20T16:36:46;17.10;99.90
18658;DHT22;9458;50.942;5.074;2022-09-20T16:39:15;17.10;99.90
18658;DHT22;9458;50.942;5.074;2022-09-20T16:41:45;17.00;99.90
18658;DHT22;9458;50.942;5.074;2022-09-20T16:44:14;17.00;99.90
18658;DHT22;9458;50.942;5.074;2022-09-20T16:46:41;17.00;99.90
18658;DHT22;9458;50.942;5.074;2022-09-20T16:49:10;16.90;99.90
18658;DHT22;9458;50.942;5.074;2022-09-20T16:51:40;16.90;99.90
18658;DHT22;9458;50.942;5.074;2022-09-20T16:54:11;16.90;99.90
18658;DHT22;9458;50.942;5.074;2022-09-20T16:56:40;16.80;99.90
18658;DHT22;9458;50.942;5.074;2022-09-20T16:59:08;16.80;99.90
18658;DHT22;9458;50.942;5.074;2022-09-20T17:01:36;16.70;99.90
18658;DHT22;9458;50.942;5.074;2022-09-20T17:04:05;16.70;99.90
18658;DHT22;9458;50.942;5.074;2022-09-20T17:06:34;16.70;99.90
18658;DHT22;9458;50.942;5.074;2022-09-20T17:09:02;16.60;99.90
18658;DHT22;9458;50.942;5.074;2022-09-20T17:11:34;16.50;99.90
18658;DHT22;9458;50.942;5.074;2022-09-20T17:14:03;16.50;99.90
18658;DHT22;9458;50.942;5.074;2022-09-20T17:16:33;16.50;99.90
18658;DHT22;9458;50.942;5.074;2022-09-20T17:19:02;16.40;99.90
18658;DHT22;9458;50.942;5.074;2022-09-20T17:21:32;16.30;99.90
18658;DHT22;9458;50.942;5.074;2022-09-20T17:24:02;16.20;99.90
18658;DHT22;9458;50.942;5.074;2022-09-20T17:26:34;16.20;99.90
18658;DHT22;9458;50.942;5.074;2022-09-20T17:29:04;16.20;99.90
18658;DHT22;9458;50.942;5.074;2022-09-20T17:31:33;16.10;99.90
18658;DHT22;9458;50.942;5.074;2022-09-20T17:34:05;16.10;99.90
18658;DHT22;9458;50.942;5.074;2022-09-20T17:36:35;16.10;99.90
18658;DHT22;9458;50.942;5.074;2022-09-20T17:39:06;16.00;99.90
18658;DHT22;9458;50.942;5.074;2022-09-20T17:41:37;16.00;99.90
18658;DHT22;9458;50.942;5.074;2022-09-20T17:44:04;16.00;99.90
18658;DHT22;9458;50.942;5.074;2022-09-20T17:46:36;16.00;99.90
18658;DHT22;9458;50.942;5.074;2022-09-20T17:49:07;15.90;99.90
18658;DHT22;9458;50.942;5.074;2022-09-20T17:51:36;15.90;99.90
18658;DHT22;9458;50.942;5.074;2022-09-20T17:54:04;15.90;99.90
18658;DHT22;9458;50.942;5.074;2022-09-20T17:56:32;15.90;99.90
18658;DHT22;9458;50.942;5.074;2022-09-20T17:59:02;15.80;99.90
18658;DHT22;9458;50.942;5.074;2022-09-20T18:01:31;15.80;99.90
18658;DHT22;9458;50.942;5.074;2022-09-20T18:04:00;15.80;99.90
18658;DHT22;9458;50.942;5.074;2022-09-20T18:06:30;15.70;99.90
18658;DHT22;9458;50.942;5.074;2022-09-20T18:08:59;15.70;99.90
18658;DHT22;9458;50.942;5.074;2022-09-20T18:11:29;15.70;99.90
18658;DHT22;9458;50.942;5.074;2022-09-20T18:13:58;15.60;99.90
18658;DHT22;9458;50.942;5.074;2022-09-20T18:16:27;15.60;99.90
18658;DHT22;9458;50.942;5.074;2022-09-20T18:18:55;15.60;99.90
18658;DHT22;9458;50.942;5.074;2022-09-20T18:21:25;15.50;99.90
18658;DHT22;9458;50.942;5.074;2022-09-20T18:23:54;15.50;99.90
18658;DHT22;9458;50.942;5.074;2022-09-20T18:26:23;15.50;99.90
18658;DHT22;9458;50.942;5.074;2022-09-20T18:28:59;15.40;99.90
18658;DHT22;9458;50.942;5.074;2022-09-20T18:31:30;15.40;99.90
18658;DHT22;9458;50.942;5.074;2022-09-20T18:34:03;15.30;99.90
18658;DHT22;9458;50.942;5.074;2022-09-20T18:36:32;15.30;99.90
18658;DHT22;9458;50.942;5.074;2022-09-20T18:39:01;15.30;99.90
18658;DHT22;9458;50.942;5.074;2022-09-20T18:41:33;15.20;99.90
18658;DHT22;9458;50.942;5.074;2022-09-20T18:44:14;15.20;99.90
18658;DHT22;9458;50.942;5.074;2022-09-20T18:46:45;15.20;99.90
18658;DHT22;9458;50.942;5.074;2022-09-20T18:49:13;15.10;99.90
18658;DHT22;9458;50.942;5.074;2022-09-20T18:51:54;15.10;99.90
18658;DHT22;9458;50.942;5.074;2022-09-20T18:54:22;15.10;99.90
18658;DHT22;9458;50.942;5.074;2022-09-20T18:56:50;15.10;99.90
18658;DHT22;9458;50.942;5.074;2022-09-20T18:59:22;15.10;99.90
18658;DHT22;9458;50.942;5.074;2022-09-20T19:02:16;15.10;99.90
18658;DHT22;9458;50.942;5.074;2022-09-20T19:08:47;15.10;99.90
18658;DHT22;9458;50.942;5.074;2022-09-20T19:11:26;15.00;99.90
18658;DHT22;9458;50.942;5.074;2022-09-20T19:14:00;15.00;99.90
18658;DHT22;9458;50.942;5.074;2022-09-20T19:16:33;15.00;99.90
18658;DHT22;9458;50.942;5.074;2022-09-20T19:19:37;14.90;99.90
18658;DHT22;9458;50.942;5.074;2022-09-20T19:22:33;14.90;99.90
18658;DHT22;9458;50.942;5.074;2022-09-20T19:25:13;14.90;99.90
18658;DHT22;9458;50.942;5.074;2022-09-20T19:27:46;14.80;99.90
18658;DHT22;9458;50.942;5.074;2022-09-20T19:30:35;14.80;99.90
18658;DHT22;9458;50.942;5.074;2022-09-20T19:33:15;14.90;99.90
18658;DHT22;9458;50.942;5.074;2022-09-20T20:22:51;14.40;99.90
18658;DHT22;9458;50.942;5.074;2022-09-20T20:25:27;14.30;99.90